AirNav   Pilot Hours Calculator
 
 757 users online  

2IL9 Meadow Creek Airport
Monee, Illinois, USA

GOING TO MONEE?


FAA INFORMATION EFFECTIVE 10 OCTOBER 2019

Location

FAA Identifier: 2IL9
Lat/Long: 41-25-58.1210N 087-46-54.1670W
41-25.968683N 087-46.902783W
41.4328114,-87.7817131
(estimated)
Elevation: 770 ft. / 235 m (estimated)
Variation: 01W (1990)
From city: 1 mile W of MONEE, IL
Time zone: UTC -5 (UTC -6 during Standard Time)
Zip code: 60449

Airport Operations

Airport use: Private use. Permission required prior to landing
Activation date: 09/1990
Control tower: no
ARTCC: CHICAGO CENTER
FSS: KANKAKEE FLIGHT SERVICE STATION
Attendance: UNATNDD
Wind indicator: yes
Segmented circle: no
Lights: SS-SR

Airport Communications

WX AWOS-AV at C56 (6 nm SE): 119.125 (708-534-5256)
WX AWOS-3 at IGQ (13 nm NE): 119.275 (708-895-9526)
WX AWOS-3 at LOT (18 nm NW): 118.525 (815-588-4802)
WX AWOS-3 at JOT (18 nm W): 119.975 (815-730-9560)
WX AWOS-3PT at GYY (20 nm NE): 134.575 (219-944-0010)

Nearby radio navigation aids

VOR radial/distance  VOR name  Freq  Var
EONr000/9.8PEOTONE VORTAC113.2002E
CGTr242/10.5CHICAGO HEIGHTS VORTAC114.2002E
IKKr008/21.7KANKAKEE VOR/DME111.6000E
JOTr104/25.1JOLIET VOR/DME112.3002E
DPAr135/37.5DUPAGE VOR/DME108.4002E

Airport Services

Runway Information

Runway 4/22

Dimensions: 3400 x 40 ft. / 1036 x 12 m
Surface: asphalt
Runway edge lights: low intensity
RUNWAY 4  RUNWAY 22
Traffic pattern: leftleft
Runway end identifier lights: yes
REILS RY 04/22 PILOT ACTIVATED 122.9, 5 CLICKS.
yes

Airport Ownership and Management from official FAA records

Ownership: Privately-owned
Owner: MEADOW CREEK CORP
25245 S. DOOLITTLE DR
MONEE, IL 60449
Phone (312) 446-2163
Manager: CHRISTIAN THOMSEN
25245 S. DOOLITTLE DR
MONEE, IL 60449
Phone (312) 446-2163

Airport Operational Statistics

Aircraft based on the field: 13
Single engine airplanes: 12
Helicopters: 1
    

Additional Remarks

FOR CD CTC CHICAGO APCH AT 847-289-0926.

Instrument Procedures

There are no published instrument procedures at 2IL9.

Some nearby airports with instrument procedures:

C56 - Bult Field Airport (6 nm SE)
KIGQ - Lansing Municipal Airport (13 nm NE)
KLOT - Lewis University Airport (18 nm NW)
05C - Griffith-Merrillville Airport (18 nm E)
KGYY - Gary/Chicago International Airport (20 nm NE)
 
Loc | Ops | Rwys | IFR | FBO | Links
Com | Nav | Svcs | Stats | Notes
Area around 2IL9 (Meadow Creek Airport)
 
Road maps at: MapQuest Bing Google
 
Aerial photo
WARNING: Photo may not be current or correct
Aerial photo of 2IL9 (Meadow Creek Airport)
Photo taken 18-Mar-2007

Do you have a better or more recent aerial photo of Meadow Creek Airport that you would like to share? If so, please send us your photo.

 
Sectional chart

 
Airport distance calculator
Flying to Meadow Creek Airport? Find the distance to fly.

From to 2IL9

Sunrise and sunset
Times for 13-Oct-2019
 Local
(UTC-5)
 Zulu
(UTC)
Morning civil twilight06:3411:34
Sunrise07:0212:02
Sunset18:1323:13
Evening civil twilight18:4123:41

Current date and time
Zulu (UTC)  14-Oct-2019 02:26:11
Local (UTC-5)  13-Oct-2019 21:26:11
 
METAR
KIGQ 
13nm NE 
140215Z AUTO 30007KT 10SM OVC070 09/00 A2995 RMK AO2 T00850003
KJOT 
18nm W 
140215Z AUTO 00000KT 10SM OVC065 09/01 A2994 RMK AO2 T00860010
KLOT 
18nm NW 
140215Z AUTO 31006KT 10SM BKN060 OVC085 07/02 A2995 RMK AO2 T00740018
KGYY 
20nm NE 
140145Z 29008KT 10SM OVC070 10/M01 A2995
KMDW 
21nm N 
140153Z 31008KT 10SM OVC060 08/M01 A2994 RMK AO2 SLP141 T00831006 $
KIKK 
22nm S 
140215Z AUTO 32007KT 10SM CLR 09/01 A2996 RMK AO2 T00850006
TAF
KGYY 
20nm NE 
132103Z 1321/1418 26012G20KT P6SM BKN050 BKN150 FM132300 26011KT P6SM SCT050 BKN100 FM140400 27008KT P6SM SCT050
KMDW 
21nm N 
132103Z 1321/1424 27012G20KT P6SM BKN050 BKN100 FM132300 27010KT P6SM SCT050 FM140400 27007KT P6SM FEW050 FM142100 24009KT P6SM FEW250
NOTAMs
Click for the latest NOTAMs
NOTAMs are issued by the DoD/FAA and will open in a separate window not controlled by AirNav.

 

 
 

Would you like to see your business listed on this page?

 If your business provides an interesting product or service to pilots, flight crews, aircraft, or users of the Meadow Creek Airport, you should consider listing it here.  To start the listing process, click on the button below
 
Add a business
 

Other Pages about Meadow Creek Airport

www.meadowcreekairpark.com
 
Update a link
 
Copyright © AirNav, LLC. All rights reserved. Privacy Policy  Contact